sensor_id;sensor_type;location;lat;lon;timestamp;P1;durP1;ratioP1;P2;durP2;ratioP2
44774;SDS011;31340;51.402;0.016;2022-07-23T00:00:31;9.27;;;4.00;;
44774;SDS011;31340;51.402;0.016;2022-07-23T00:03:05;6.80;;;3.65;;
44774;SDS011;31340;51.402;0.016;2022-07-23T00:05:33;7.93;;;3.65;;
44774;SDS011;31340;51.402;0.016;2022-07-23T00:08:09;7.95;;;3.45;;
44774;SDS011;31340;51.402;0.016;2022-07-23T00:11:10;8.98;;;3.70;;
44774;SDS011;31340;51.402;0.016;2022-07-23T00:13:37;11.00;;;3.30;;
44774;SDS011;31340;51.402;0.016;2022-07-23T00:16:05;8.05;;;4.18;;
44774;SDS011;31340;51.402;0.016;2022-07-23T00:18:33;8.57;;;4.07;;
44774;SDS011;31340;51.402;0.016;2022-07-23T00:21:00;9.73;;;4.93;;
44774;SDS011;31340;51.402;0.016;2022-07-23T00:23:28;11.82;;;5.25;;
44774;SDS011;31340;51.402;0.016;2022-07-23T00:25:57;11.90;;;6.78;;
44774;SDS011;31340;51.402;0.016;2022-07-23T00:28:25;13.60;;;5.13;;
44774;SDS011;31340;51.402;0.016;2022-07-23T00:30:52;12.07;;;4.43;;
44774;SDS011;31340;51.402;0.016;2022-07-23T00:33:20;9.95;;;4.25;;
44774;SDS011;31340;51.402;0.016;2022-07-23T00:35:47;10.45;;;4.30;;
44774;SDS011;31340;51.402;0.016;2022-07-23T00:38:15;11.02;;;4.60;;
44774;SDS011;31340;51.402;0.016;2022-07-23T00:40:42;9.32;;;4.50;;
44774;SDS011;31340;51.402;0.016;2022-07-23T00:43:10;7.70;;;4.28;;
44774;SDS011;31340;51.402;0.016;2022-07-23T00:45:38;10.07;;;4.70;;
44774;SDS011;31340;51.402;0.016;2022-07-23T00:48:07;7.15;;;4.55;;
44774;SDS011;31340;51.402;0.016;2022-07-23T00:50:34;13.27;;;5.72;;
44774;SDS011;31340;51.402;0.016;2022-07-23T00:53:02;9.85;;;5.25;;
44774;SDS011;31340;51.402;0.016;2022-07-23T00:55:29;8.02;;;3.90;;
44774;SDS011;31340;51.402;0.016;2022-07-23T00:57:57;12.68;;;4.35;;
44774;SDS011;31340;51.402;0.016;2022-07-23T01:00:26;8.75;;;3.90;;
44774;SDS011;31340;51.402;0.016;2022-07-23T01:02:54;7.82;;;3.90;;
44774;SDS011;31340;51.402;0.016;2022-07-23T01:05:21;8.85;;;4.18;;
44774;SDS011;31340;51.402;0.016;2022-07-23T01:07:49;9.10;;;4.32;;
44774;SDS011;31340;51.402;0.016;2022-07-23T01:10:22;7.63;;;4.00;;
44774;SDS011;31340;51.402;0.016;2022-07-23T01:13:05;8.05;;;4.32;;
44774;SDS011;31340;51.402;0.016;2022-07-23T01:15:37;9.45;;;4.03;;
44774;SDS011;31340;51.402;0.016;2022-07-23T01:18:06;11.18;;;4.00;;
44774;SDS011;31340;51.402;0.016;2022-07-23T01:20:36;7.13;;;4.10;;
44774;SDS011;31340;51.402;0.016;2022-07-23T01:23:04;11.30;;;3.78;;
44774;SDS011;31340;51.402;0.016;2022-07-23T01:25:33;11.45;;;3.70;;
44774;SDS011;31340;51.402;0.016;2022-07-23T01:28:02;8.95;;;3.63;;
44774;SDS011;31340;51.402;0.016;2022-07-23T01:30:30;8.65;;;3.15;;
44774;SDS011;31340;51.402;0.016;2022-07-23T01:32:58;9.70;;;3.80;;
44774;SDS011;31340;51.402;0.016;2022-07-23T01:35:26;7.95;;;3.28;;
44774;SDS011;31340;51.402;0.016;2022-07-23T01:37:58;9.02;;;3.15;;
44774;SDS011;31340;51.402;0.016;2022-07-23T01:40:26;7.97;;;3.70;;
44774;SDS011;31340;51.402;0.016;2022-07-23T01:42:55;7.22;;;3.28;;
44774;SDS011;31340;51.402;0.016;2022-07-23T01:45:23;10.35;;;3.50;;
44774;SDS011;31340;51.402;0.016;2022-07-23T01:47:51;8.05;;;3.40;;
44774;SDS011;31340;51.402;0.016;2022-07-23T01:50:19;8.48;;;3.38;;
44774;SDS011;31340;51.402;0.016;2022-07-23T01:53:12;10.70;;;3.55;;
44774;SDS011;31340;51.402;0.016;2022-07-23T01:55:41;6.10;;;2.88;;
44774;SDS011;31340;51.402;0.016;2022-07-23T01:58:10;8.88;;;3.45;;
44774;SDS011;31340;51.402;0.016;2022-07-23T02:00:39;7.18;;;3.35;;
44774;SDS011;31340;51.402;0.016;2022-07-23T02:03:06;6.85;;;2.58;;
44774;SDS011;31340;51.402;0.016;2022-07-23T02:05:36;10.40;;;3.20;;
44774;SDS011;31340;51.402;0.016;2022-07-23T02:08:04;8.57;;;3.05;;
44774;SDS011;31340;51.402;0.016;2022-07-23T02:10:34;10.45;;;3.50;;
44774;SDS011;31340;51.402;0.016;2022-07-23T02:13:03;6.57;;;2.88;;
44774;SDS011;31340;51.402;0.016;2022-07-23T02:15:31;8.13;;;3.10;;
44774;SDS011;31340;51.402;0.016;2022-07-23T02:17:59;6.32;;;3.30;;
44774;SDS011;31340;51.402;0.016;2022-07-23T02:20:27;7.75;;;3.15;;
44774;SDS011;31340;51.402;0.016;2022-07-23T02:22:54;7.93;;;3.17;;
44774;SDS011;31340;51.402;0.016;2022-07-23T02:25:22;6.90;;;3.20;;
44774;SDS011;31340;51.402;0.016;2022-07-23T02:27:55;8.23;;;3.10;;
44774;SDS011;31340;51.402;0.016;2022-07-23T02:30:23;9.98;;;3.40;;
44774;SDS011;31340;51.402;0.016;2022-07-23T02:32:51;9.20;;;3.47;;
44774;SDS011;31340;51.402;0.016;2022-07-23T02:35:19;11.20;;;3.30;;
44774;SDS011;31340;51.402;0.016;2022-07-23T02:37:48;8.18;;;2.45;;
44774;SDS011;31340;51.402;0.016;2022-07-23T02:40:17;6.25;;;2.67;;
44774;SDS011;31340;51.402;0.016;2022-07-23T02:42:45;8.23;;;2.78;;
44774;SDS011;31340;51.402;0.016;2022-07-23T02:45:13;10.07;;;3.60;;
44774;SDS011;31340;51.402;0.016;2022-07-23T02:47:40;7.65;;;3.00;;
44774;SDS011;31340;51.402;0.016;2022-07-23T02:50:09;7.30;;;3.20;;
44774;SDS011;31340;51.402;0.016;2022-07-23T02:52:38;8.60;;;3.60;;
44774;SDS011;31340;51.402;0.016;2022-07-23T02:55:07;7.18;;;2.80;;
44774;SDS011;31340;51.402;0.016;2022-07-23T02:57:35;9.52;;;3.40;;
44774;SDS011;31340;51.402;0.016;2022-07-23T03:00:03;6.97;;;2.80;;
44774;SDS011;31340;51.402;0.016;2022-07-23T03:02:32;5.05;;;2.80;;
44774;SDS011;31340;51.402;0.016;2022-07-23T03:05:00;5.22;;;3.10;;
44774;SDS011;31340;51.402;0.016;2022-07-23T03:07:28;11.32;;;2.83;;
44774;SDS011;31340;51.402;0.016;2022-07-23T03:09:55;9.95;;;3.35;;
44774;SDS011;31340;51.402;0.016;2022-07-23T03:12:23;7.18;;;3.80;;
44774;SDS011;31340;51.402;0.016;2022-07-23T03:14:51;16.25;;;3.40;;
44774;SDS011;31340;51.402;0.016;2022-07-23T03:17:18;7.72;;;3.53;;
44774;SDS011;31340;51.402;0.016;2022-07-23T03:19:47;7.70;;;3.17;;
44774;SDS011;31340;51.402;0.016;2022-07-23T03:22:14;6.13;;;3.28;;
44774;SDS011;31340;51.402;0.016;2022-07-23T03:24:42;8.32;;;3.20;;
44774;SDS011;31340;51.402;0.016;2022-07-23T03:27:28;7.78;;;3.50;;
44774;SDS011;31340;51.402;0.016;2022-07-23T03:29:57;6.43;;;2.80;;
44774;SDS011;31340;51.402;0.016;2022-07-23T03:32:26;8.90;;;3.03;;
44774;SDS011;31340;51.402;0.016;2022-07-23T03:34:55;10.07;;;3.17;;
44774;SDS011;31340;51.402;0.016;2022-07-23T03:37:23;6.95;;;2.50;;
44774;SDS011;31340;51.402;0.016;2022-07-23T03:39:52;6.60;;;2.90;;
44774;SDS011;31340;51.402;0.016;2022-07-23T03:42:19;8.25;;;3.10;;
44774;SDS011;31340;51.402;0.016;2022-07-23T03:44:47;8.70;;;3.63;;
44774;SDS011;31340;51.402;0.016;2022-07-23T03:47:15;10.27;;;3.33;;
44774;SDS011;31340;51.402;0.016;2022-07-23T03:49:44;8.68;;;3.47;;
44774;SDS011;31340;51.402;0.016;2022-07-23T03:52:11;10.60;;;3.47;;
44774;SDS011;31340;51.402;0.016;2022-07-23T03:54:39;11.48;;;3.88;;
44774;SDS011;31340;51.402;0.016;2022-07-23T03:57:06;7.85;;;3.00;;
44774;SDS011;31340;51.402;0.016;2022-07-23T03:59:34;7.78;;;4.13;;
44774;SDS011;31340;51.402;0.016;2022-07-23T04:02:02;12.02;;;3.50;;
44774;SDS011;31340;51.402;0.016;2022-07-23T04:04:29;10.75;;;3.78;;
44774;SDS011;31340;51.402;0.016;2022-07-23T04:06:57;8.98;;;3.65;;
44774;SDS011;31340;51.402;0.016;2022-07-23T04:09:25;8.48;;;4.00;;
44774;SDS011;31340;51.402;0.016;2022-07-23T04:11:53;13.90;;;4.35;;
44774;SDS011;31340;51.402;0.016;2022-07-23T04:14:20;8.30;;;3.75;;
44774;SDS011;31340;51.402;0.016;2022-07-23T04:16:48;10.55;;;4.22;;
44774;SDS011;31340;51.402;0.016;2022-07-23T04:19:16;6.95;;;3.55;;
44774;SDS011;31340;51.402;0.016;2022-07-23T04:22:00;8.38;;;3.88;;
44774;SDS011;31340;51.402;0.016;2022-07-23T04:24:30;9.95;;;3.38;;
44774;SDS011;31340;51.402;0.016;2022-07-23T04:26:57;6.68;;;3.33;;
44774;SDS011;31340;51.402;0.016;2022-07-23T04:29:25;6.82;;;3.33;;
44774;SDS011;31340;51.402;0.016;2022-07-23T04:31:53;11.77;;;4.43;;
44774;SDS011;31340;51.402;0.016;2022-07-23T04:34:21;11.13;;;3.78;;
44774;SDS011;31340;51.402;0.016;2022-07-23T04:36:49;8.88;;;3.58;;
44774;SDS011;31340;51.402;0.016;2022-07-23T04:39:17;7.25;;;4.40;;
44774;SDS011;31340;51.402;0.016;2022-07-23T04:41:45;7.28;;;3.92;;
44774;SDS011;31340;51.402;0.016;2022-07-23T04:44:13;10.93;;;3.90;;
44774;SDS011;31340;51.402;0.016;2022-07-23T04:46:41;11.85;;;4.28;;
44774;SDS011;31340;51.402;0.016;2022-07-23T04:49:09;8.05;;;4.13;;
44774;SDS011;31340;51.402;0.016;2022-07-23T04:51:36;6.32;;;3.90;;
44774;SDS011;31340;51.402;0.016;2022-07-23T04:54:04;8.65;;;3.83;;
44774;SDS011;31340;51.402;0.016;2022-07-23T04:56:31;10.18;;;3.72;;
44774;SDS011;31340;51.402;0.016;2022-07-23T04:58:59;13.43;;;4.05;;
44774;SDS011;31340;51.402;0.016;2022-07-23T05:01:28;9.55;;;4.03;;
44774;SDS011;31340;51.402;0.016;2022-07-23T05:03:55;13.18;;;4.25;;
44774;SDS011;31340;51.402;0.016;2022-07-23T05:06:27;9.40;;;4.30;;
44774;SDS011;31340;51.402;0.016;2022-07-23T05:08:54;12.52;;;4.20;;
44774;SDS011;31340;51.402;0.016;2022-07-23T05:11:22;10.23;;;4.60;;
44774;SDS011;31340;51.402;0.016;2022-07-23T05:13:53;12.85;;;4.68;;
44774;SDS011;31340;51.402;0.016;2022-07-23T05:16:22;10.63;;;4.22;;
44774;SDS011;31340;51.402;0.016;2022-07-23T05:18:53;11.02;;;3.95;;
44774;SDS011;31340;51.402;0.016;2022-07-23T05:21:21;10.57;;;4.10;;
44774;SDS011;31340;51.402;0.016;2022-07-23T05:23:49;13.07;;;4.22;;
44774;SDS011;31340;51.402;0.016;2022-07-23T05:26:16;10.35;;;4.43;;
44774;SDS011;31340;51.402;0.016;2022-07-23T05:28:44;16.50;;;4.75;;
44774;SDS011;31340;51.402;0.016;2022-07-23T05:31:26;9.88;;;4.00;;
44774;SDS011;31340;51.402;0.016;2022-07-23T05:33:53;12.27;;;4.85;;
44774;SDS011;31340;51.402;0.016;2022-07-23T05:36:21;9.75;;;4.38;;
44774;SDS011;31340;51.402;0.016;2022-07-23T05:38:52;11.13;;;4.65;;
44774;SDS011;31340;51.402;0.016;2022-07-23T05:41:20;14.10;;;5.00;;
44774;SDS011;31340;51.402;0.016;2022-07-23T05:43:47;14.77;;;4.75;;
44774;SDS011;31340;51.402;0.016;2022-07-23T05:46:15;11.60;;;4.78;;
44774;SDS011;31340;51.402;0.016;2022-07-23T05:48:47;10.60;;;4.30;;
44774;SDS011;31340;51.402;0.016;2022-07-23T05:51:36;12.38;;;5.03;;
44774;SDS011;31340;51.402;0.016;2022-07-23T05:54:04;10.15;;;4.13;;
44774;SDS011;31340;51.402;0.016;2022-07-23T05:56:36;14.55;;;5.38;;
44774;SDS011;31340;51.402;0.016;2022-07-23T05:59:04;10.43;;;4.47;;
44774;SDS011;31340;51.402;0.016;2022-07-23T06:01:32;13.82;;;4.45;;
44774;SDS011;31340;51.402;0.016;2022-07-23T06:04:10;13.50;;;5.40;;
44774;SDS011;31340;51.402;0.016;2022-07-23T06:06:44;9.27;;;4.38;;
44774;SDS011;31340;51.402;0.016;2022-07-23T06:09:11;15.52;;;5.30;;
44774;SDS011;31340;51.402;0.016;2022-07-23T06:11:41;13.13;;;4.57;;
44774;SDS011;31340;51.402;0.016;2022-07-23T06:14:08;12.07;;;4.68;;
44774;SDS011;31340;51.402;0.016;2022-07-23T06:16:47;10.32;;;4.60;;
44774;SDS011;31340;51.402;0.016;2022-07-23T06:19:15;9.57;;;4.60;;
44774;SDS011;31340;51.402;0.016;2022-07-23T06:21:43;8.10;;;3.90;;
44774;SDS011;31340;51.402;0.016;2022-07-23T06:24:15;7.72;;;4.10;;
44774;SDS011;31340;51.402;0.016;2022-07-23T06:26:42;10.38;;;4.68;;
44774;SDS011;31340;51.402;0.016;2022-07-23T06:29:10;11.15;;;4.25;;
44774;SDS011;31340;51.402;0.016;2022-07-23T06:31:37;6.88;;;3.88;;
44774;SDS011;31340;51.402;0.016;2022-07-23T06:34:05;10.73;;;4.53;;
44774;SDS011;31340;51.402;0.016;2022-07-23T06:36:35;6.57;;;4.00;;
44774;SDS011;31340;51.402;0.016;2022-07-23T06:39:03;9.18;;;4.18;;
44774;SDS011;31340;51.402;0.016;2022-07-23T06:41:31;11.43;;;4.40;;
44774;SDS011;31340;51.402;0.016;2022-07-23T06:44:00;12.98;;;4.65;;
44774;SDS011;31340;51.402;0.016;2022-07-23T06:46:30;10.50;;;4.07;;
44774;SDS011;31340;51.402;0.016;2022-07-23T06:48:57;8.82;;;3.92;;
44774;SDS011;31340;51.402;0.016;2022-07-23T06:51:28;7.95;;;4.38;;
44774;SDS011;31340;51.402;0.016;2022-07-23T06:53:56;9.45;;;4.10;;
44774;SDS011;31340;51.402;0.016;2022-07-23T06:56:23;10.70;;;4.25;;
44774;SDS011;31340;51.402;0.016;2022-07-23T06:58:51;15.07;;;4.68;;
44774;SDS011;31340;51.402;0.016;2022-07-23T07:01:19;8.80;;;4.20;;
44774;SDS011;31340;51.402;0.016;2022-07-23T07:03:47;10.98;;;4.55;;
44774;SDS011;31340;51.402;0.016;2022-07-23T07:06:15;8.05;;;4.40;;
44774;SDS011;31340;51.402;0.016;2022-07-23T07:08:42;7.95;;;4.03;;
44774;SDS011;31340;51.402;0.016;2022-07-23T07:11:10;11.23;;;4.18;;
44774;SDS011;31340;51.402;0.016;2022-07-23T07:13:38;12.40;;;4.60;;
44774;SDS011;31340;51.402;0.016;2022-07-23T07:16:06;12.88;;;4.35;;
44774;SDS011;31340;51.402;0.016;2022-07-23T07:18:34;10.95;;;4.43;;
44774;SDS011;31340;51.402;0.016;2022-07-23T07:21:01;12.07;;;4.65;;
44774;SDS011;31340;51.402;0.016;2022-07-23T07:23:28;10.63;;;4.45;;
44774;SDS011;31340;51.402;0.016;2022-07-23T07:25:56;10.73;;;3.58;;
44774;SDS011;31340;51.402;0.016;2022-07-23T07:28:23;11.73;;;4.03;;
44774;SDS011;31340;51.402;0.016;2022-07-23T07:30:51;10.80;;;4.05;;
44774;SDS011;31340;51.402;0.016;2022-07-23T07:33:19;10.65;;;4.10;;
44774;SDS011;31340;51.402;0.016;2022-07-23T07:35:47;13.27;;;4.97;;
44774;SDS011;31340;51.402;0.016;2022-07-23T07:38:15;11.00;;;4.95;;
44774;SDS011;31340;51.402;0.016;2022-07-23T07:40:43;12.05;;;5.22;;
44774;SDS011;31340;51.402;0.016;2022-07-23T07:43:10;13.82;;;5.18;;
44774;SDS011;31340;51.402;0.016;2022-07-23T07:45:38;13.50;;;4.65;;
44774;SDS011;31340;51.402;0.016;2022-07-23T07:48:05;12.73;;;5.10;;
44774;SDS011;31340;51.402;0.016;2022-07-23T07:50:33;7.68;;;4.00;;
44774;SDS011;31340;51.402;0.016;2022-07-23T07:53:01;12.75;;;4.22;;
44774;SDS011;31340;51.402;0.016;2022-07-23T07:55:29;11.98;;;3.67;;
44774;SDS011;31340;51.402;0.016;2022-07-23T07:57:58;9.13;;;3.40;;
44774;SDS011;31340;51.402;0.016;2022-07-23T08:00:28;5.70;;;3.30;;
44774;SDS011;31340;51.402;0.016;2022-07-23T08:02:56;7.18;;;3.47;;
44774;SDS011;31340;51.402;0.016;2022-07-23T08:05:27;7.10;;;2.88;;
44774;SDS011;31340;51.402;0.016;2022-07-23T08:07:56;13.97;;;3.87;;
44774;SDS011;31340;51.402;0.016;2022-07-23T08:10:25;9.88;;;3.88;;
44774;SDS011;31340;51.402;0.016;2022-07-23T08:12:54;11.75;;;2.90;;
44774;SDS011;31340;51.402;0.016;2022-07-23T08:15:25;9.02;;;3.30;;
44774;SDS011;31340;51.402;0.016;2022-07-23T08:17:54;13.93;;;2.87;;
44774;SDS011;31340;51.402;0.016;2022-07-23T08:20:22;8.48;;;3.13;;
44774;SDS011;31340;51.402;0.016;2022-07-23T08:22:52;6.22;;;3.42;;
44774;SDS011;31340;51.402;0.016;2022-07-23T08:25:31;6.07;;;2.90;;
44774;SDS011;31340;51.402;0.016;2022-07-23T08:28:01;8.25;;;3.20;;
44774;SDS011;31340;51.402;0.016;2022-07-23T08:30:31;10.80;;;3.53;;
44774;SDS011;31340;51.402;0.016;2022-07-23T08:33:00;8.43;;;3.22;;
44774;SDS011;31340;51.402;0.016;2022-07-23T08:35:35;9.77;;;3.55;;
44774;SDS011;31340;51.402;0.016;2022-07-23T08:38:08;8.55;;;3.22;;
44774;SDS011;31340;51.402;0.016;2022-07-23T08:40:37;8.27;;;3.25;;
44774;SDS011;31340;51.402;0.016;2022-07-23T08:43:10;7.55;;;3.28;;
44774;SDS011;31340;51.402;0.016;2022-07-23T08:45:46;6.40;;;2.58;;
44774;SDS011;31340;51.402;0.016;2022-07-23T08:48:17;6.03;;;2.85;;
44774;SDS011;31340;51.402;0.016;2022-07-23T08:50:50;4.70;;;2.60;;
44774;SDS011;31340;51.402;0.016;2022-07-23T08:53:21;7.15;;;2.50;;
44774;SDS011;31340;51.402;0.016;2022-07-23T08:55:56;7.55;;;3.00;;
44774;SDS011;31340;51.402;0.016;2022-07-23T08:58:25;9.10;;;3.38;;
44774;SDS011;31340;51.402;0.016;2022-07-23T09:00:56;4.97;;;2.75;;
44774;SDS011;31340;51.402;0.016;2022-07-23T09:03:28;4.25;;;2.35;;
44774;SDS011;31340;51.402;0.016;2022-07-23T09:06:01;5.75;;;2.63;;
44774;SDS011;31340;51.402;0.016;2022-07-23T09:08:39;4.85;;;2.30;;
44774;SDS011;31340;51.402;0.016;2022-07-23T09:11:09;7.80;;;2.60;;
44774;SDS011;31340;51.402;0.016;2022-07-23T09:16:20;7.60;;;2.58;;
44774;SDS011;31340;51.402;0.016;2022-07-23T09:18:53;3.92;;;2.40;;
44774;SDS011;31340;51.402;0.016;2022-07-23T09:21:26;5.55;;;2.30;;
44774;SDS011;31340;51.402;0.016;2022-07-23T09:26:36;5.68;;;2.50;;
44774;SDS011;31340;51.402;0.016;2022-07-23T09:29:08;7.35;;;2.47;;
44774;SDS011;31340;51.402;0.016;2022-07-23T09:34:24;5.13;;;2.55;;
44774;SDS011;31340;51.402;0.016;2022-07-23T09:36:58;6.57;;;2.30;;
44774;SDS011;31340;51.402;0.016;2022-07-23T09:39:36;5.40;;;2.28;;
44774;SDS011;31340;51.402;0.016;2022-07-23T09:44:41;4.45;;;2.15;;
44774;SDS011;31340;51.402;0.016;2022-07-23T09:47:13;8.77;;;2.47;;
44774;SDS011;31340;51.402;0.016;2022-07-23T09:52:35;7.93;;;2.10;;
44774;SDS011;31340;51.402;0.016;2022-07-23T09:55:11;4.93;;;2.40;;
44774;SDS011;31340;51.402;0.016;2022-07-23T09:57:40;5.57;;;2.10;;
44774;SDS011;31340;51.402;0.016;2022-07-23T10:00:09;7.18;;;2.20;;
44774;SDS011;31340;51.402;0.016;2022-07-23T10:02:37;7.88;;;2.45;;
44774;SDS011;31340;51.402;0.016;2022-07-23T10:05:25;8.48;;;2.33;;
44774;SDS011;31340;51.402;0.016;2022-07-23T10:08:16;8.20;;;2.90;;
44774;SDS011;31340;51.402;0.016;2022-07-23T10:11:04;5.07;;;1.85;;
44774;SDS011;31340;51.402;0.016;2022-07-23T10:13:53;4.70;;;1.83;;
44774;SDS011;31340;51.402;0.016;2022-07-23T10:16:51;5.68;;;2.30;;
44774;SDS011;31340;51.402;0.016;2022-07-23T10:19:18;2.67;;;1.92;;
44774;SDS011;31340;51.402;0.016;2022-07-23T10:21:48;4.47;;;2.10;;
44774;SDS011;31340;51.402;0.016;2022-07-23T10:32:53;5.80;;;1.92;;
44774;SDS011;31340;51.402;0.016;2022-07-23T10:35:58;5.40;;;2.15;;
44774;SDS011;31340;51.402;0.016;2022-07-23T10:38:37;7.30;;;2.10;;
44774;SDS011;31340;51.402;0.016;2022-07-23T10:41:30;5.90;;;1.80;;
44774;SDS011;31340;51.402;0.016;2022-07-23T10:44:06;3.95;;;1.77;;
44774;SDS011;31340;51.402;0.016;2022-07-23T10:47:20;5.70;;;1.77;;
44774;SDS011;31340;51.402;0.016;2022-07-23T10:50:32;4.20;;;1.60;;
44774;SDS011;31340;51.402;0.016;2022-07-23T10:58:04;4.63;;;1.77;;
44774;SDS011;31340;51.402;0.016;2022-07-23T11:00:34;8.13;;;2.60;;
44774;SDS011;31340;51.402;0.016;2022-07-23T11:03:04;6.97;;;2.15;;
44774;SDS011;31340;51.402;0.016;2022-07-23T11:05:52;3.85;;;1.70;;
44774;SDS011;31340;51.402;0.016;2022-07-23T11:08:20;3.28;;;1.90;;
44774;SDS011;31340;51.402;0.016;2022-07-23T11:10:55;4.88;;;1.65;;
44774;SDS011;31340;51.402;0.016;2022-07-23T11:13:46;4.30;;;1.70;;
44774;SDS011;31340;51.402;0.016;2022-07-23T11:16:16;4.15;;;1.70;;
44774;SDS011;31340;51.402;0.016;2022-07-23T11:31:58;5.53;;;1.70;;
44774;SDS011;31340;51.402;0.016;2022-07-23T11:34:32;6.97;;;1.70;;
44774;SDS011;31340;51.402;0.016;2022-07-23T11:37:08;5.93;;;2.17;;
44774;SDS011;31340;51.402;0.016;2022-07-23T11:39:37;6.35;;;1.83;;
44774;SDS011;31340;51.402;0.016;2022-07-23T11:42:06;2.65;;;1.70;;
44774;SDS011;31340;51.402;0.016;2022-07-23T11:44:35;4.00;;;2.00;;
44774;SDS011;31340;51.402;0.016;2022-07-23T11:47:05;4.57;;;1.92;;
44774;SDS011;31340;51.402;0.016;2022-07-23T11:49:35;5.80;;;1.80;;
44774;SDS011;31340;51.402;0.016;2022-07-23T11:52:10;5.15;;;1.80;;
44774;SDS011;31340;51.402;0.016;2022-07-23T11:54:58;4.55;;;2.00;;
44774;SDS011;31340;51.402;0.016;2022-07-23T11:57:29;4.53;;;2.08;;
44774;SDS011;31340;51.402;0.016;2022-07-23T12:00:42;3.85;;;2.03;;
44774;SDS011;31340;51.402;0.016;2022-07-23T12:03:00;5.20;;;1.95;;
44774;SDS011;31340;51.402;0.016;2022-07-23T12:05:34;2.97;;;1.63;;
44774;SDS011;31340;51.402;0.016;2022-07-23T12:08:04;3.05;;;1.90;;
44774;SDS011;31340;51.402;0.016;2022-07-23T12:13:12;2.83;;;2.10;;
44774;SDS011;31340;51.402;0.016;2022-07-23T12:15:43;6.90;;;2.10;;
44774;SDS011;31340;51.402;0.016;2022-07-23T12:18:13;4.13;;;1.85;;
44774;SDS011;31340;51.402;0.016;2022-07-23T12:20:43;5.68;;;2.20;;
44774;SDS011;31340;51.402;0.016;2022-07-23T12:23:15;3.97;;;2.40;;
44774;SDS011;31340;51.402;0.016;2022-07-23T12:25:48;2.40;;;1.80;;
44774;SDS011;31340;51.402;0.016;2022-07-23T12:28:21;2.95;;;1.90;;
44774;SDS011;31340;51.402;0.016;2022-07-23T12:30:56;3.42;;;1.80;;
44774;SDS011;31340;51.402;0.016;2022-07-23T12:33:25;4.38;;;1.92;;
44774;SDS011;31340;51.402;0.016;2022-07-23T12:35:55;2.83;;;1.73;;
44774;SDS011;31340;51.402;0.016;2022-07-23T12:38:25;3.45;;;2.08;;
44774;SDS011;31340;51.402;0.016;2022-07-23T12:43:30;3.70;;;1.90;;
44774;SDS011;31340;51.402;0.016;2022-07-23T12:46:07;8.13;;;3.45;;
44774;SDS011;31340;51.402;0.016;2022-07-23T12:48:35;3.65;;;1.73;;
44774;SDS011;31340;51.402;0.016;2022-07-23T12:53:48;7.28;;;2.22;;
44774;SDS011;31340;51.402;0.016;2022-07-23T12:56:18;4.60;;;1.70;;
44774;SDS011;31340;51.402;0.016;2022-07-23T12:58:52;2.70;;;1.88;;
44774;SDS011;31340;51.402;0.016;2022-07-23T13:01:23;5.20;;;1.70;;
44774;SDS011;31340;51.402;0.016;2022-07-23T13:03:57;2.17;;;1.70;;
44774;SDS011;31340;51.402;0.016;2022-07-23T13:06:26;3.78;;;2.22;;
44774;SDS011;31340;51.402;0.016;2022-07-23T13:08:55;6.35;;;1.73;;
44774;SDS011;31340;51.402;0.016;2022-07-23T13:11:23;4.05;;;1.88;;
44774;SDS011;31340;51.402;0.016;2022-07-23T13:13:51;3.45;;;1.88;;
44774;SDS011;31340;51.402;0.016;2022-07-23T13:16:19;3.85;;;2.15;;
44774;SDS011;31340;51.402;0.016;2022-07-23T13:18:47;6.60;;;2.10;;
44774;SDS011;31340;51.402;0.016;2022-07-23T13:21:15;9.05;;;2.30;;
44774;SDS011;31340;51.402;0.016;2022-07-23T13:23:43;3.25;;;1.83;;
44774;SDS011;31340;51.402;0.016;2022-07-23T13:26:11;2.42;;;1.52;;
44774;SDS011;31340;51.402;0.016;2022-07-23T13:28:39;3.70;;;2.00;;
44774;SDS011;31340;51.402;0.016;2022-07-23T13:31:06;3.88;;;1.77;;
44774;SDS011;31340;51.402;0.016;2022-07-23T13:33:35;7.88;;;2.30;;
44774;SDS011;31340;51.402;0.016;2022-07-23T13:36:03;4.05;;;1.58;;
44774;SDS011;31340;51.402;0.016;2022-07-23T13:38:31;6.07;;;2.53;;
44774;SDS011;31340;51.402;0.016;2022-07-23T13:40:58;2.60;;;1.73;;
44774;SDS011;31340;51.402;0.016;2022-07-23T13:43:26;3.75;;;1.63;;
44774;SDS011;31340;51.402;0.016;2022-07-23T13:45:59;3.05;;;1.83;;
44774;SDS011;31340;51.402;0.016;2022-07-23T13:48:26;4.00;;;2.60;;
44774;SDS011;31340;51.402;0.016;2022-07-23T13:50:56;4.25;;;2.10;;
44774;SDS011;31340;51.402;0.016;2022-07-23T13:53:24;3.53;;;1.92;;
44774;SDS011;31340;51.402;0.016;2022-07-23T13:55:52;3.92;;;1.80;;
44774;SDS011;31340;51.402;0.016;2022-07-23T13:58:22;3.58;;;2.10;;
44774;SDS011;31340;51.402;0.016;2022-07-23T14:00:51;5.20;;;3.20;;
44774;SDS011;31340;51.402;0.016;2022-07-23T14:05:53;7.03;;;2.42;;
44774;SDS011;31340;51.402;0.016;2022-07-23T14:08:23;3.60;;;1.70;;
44774;SDS011;31340;51.402;0.016;2022-07-23T14:10:50;2.83;;;1.80;;
44774;SDS011;31340;51.402;0.016;2022-07-23T14:13:18;5.80;;;2.67;;
44774;SDS011;31340;51.402;0.016;2022-07-23T14:15:47;3.55;;;1.90;;
44774;SDS011;31340;51.402;0.016;2022-07-23T14:18:16;3.10;;;1.88;;
44774;SDS011;31340;51.402;0.016;2022-07-23T14:20:44;6.68;;;2.70;;
44774;SDS011;31340;51.402;0.016;2022-07-23T14:23:11;2.78;;;2.00;;
44774;SDS011;31340;51.402;0.016;2022-07-23T14:25:39;4.10;;;2.00;;
44774;SDS011;31340;51.402;0.016;2022-07-23T14:28:07;4.00;;;2.17;;
44774;SDS011;31340;51.402;0.016;2022-07-23T14:30:35;5.10;;;2.40;;
44774;SDS011;31340;51.402;0.016;2022-07-23T14:33:02;7.28;;;2.47;;
44774;SDS011;31340;51.402;0.016;2022-07-23T14:35:30;5.88;;;1.80;;
44774;SDS011;31340;51.402;0.016;2022-07-23T14:37:58;4.72;;;2.35;;
44774;SDS011;31340;51.402;0.016;2022-07-23T14:40:26;3.10;;;2.10;;
44774;SDS011;31340;51.402;0.016;2022-07-23T14:42:55;3.65;;;1.63;;
44774;SDS011;31340;51.402;0.016;2022-07-23T14:45:22;4.05;;;1.52;;
44774;SDS011;31340;51.402;0.016;2022-07-23T14:47:50;3.88;;;1.80;;
44774;SDS011;31340;51.402;0.016;2022-07-23T14:50:17;2.78;;;1.80;;
44774;SDS011;31340;51.402;0.016;2022-07-23T14:52:45;4.68;;;1.80;;
44774;SDS011;31340;51.402;0.016;2022-07-23T14:55:15;4.05;;;1.70;;
44774;SDS011;31340;51.402;0.016;2022-07-23T14:57:45;4.75;;;2.13;;
44774;SDS011;31340;51.402;0.016;2022-07-23T15:00:13;4.82;;;1.90;;
44774;SDS011;31340;51.402;0.016;2022-07-23T15:02:42;4.38;;;1.83;;
44774;SDS011;31340;51.402;0.016;2022-07-23T15:05:19;4.05;;;1.80;;
44774;SDS011;31340;51.402;0.016;2022-07-23T15:07:47;3.42;;;2.30;;
44774;SDS011;31340;51.402;0.016;2022-07-23T15:10:15;4.07;;;1.77;;
44774;SDS011;31340;51.402;0.016;2022-07-23T15:12:48;3.58;;;2.08;;
44774;SDS011;31340;51.402;0.016;2022-07-23T15:15:16;2.70;;;1.60;;
44774;SDS011;31340;51.402;0.016;2022-07-23T15:17:44;2.17;;;1.92;;
44774;SDS011;31340;51.402;0.016;2022-07-23T15:20:12;3.30;;;2.42;;
44774;SDS011;31340;51.402;0.016;2022-07-23T15:23:00;4.05;;;1.88;;
44774;SDS011;31340;51.402;0.016;2022-07-23T15:25:28;5.47;;;1.90;;
44774;SDS011;31340;51.402;0.016;2022-07-23T15:27:57;3.97;;;1.75;;
44774;SDS011;31340;51.402;0.016;2022-07-23T15:30:26;2.88;;;1.70;;
44774;SDS011;31340;51.402;0.016;2022-07-23T15:32:54;5.07;;;2.00;;
44774;SDS011;31340;51.402;0.016;2022-07-23T15:35:22;3.58;;;1.83;;
44774;SDS011;31340;51.402;0.016;2022-07-23T15:37:50;2.47;;;1.70;;
44774;SDS011;31340;51.402;0.016;2022-07-23T15:40:18;5.15;;;2.00;;
44774;SDS011;31340;51.402;0.016;2022-07-23T15:42:45;3.50;;;1.63;;
44774;SDS011;31340;51.402;0.016;2022-07-23T15:45:14;4.93;;;1.75;;
44774;SDS011;31340;51.402;0.016;2022-07-23T15:47:44;4.18;;;1.80;;
44774;SDS011;31340;51.402;0.016;2022-07-23T15:50:14;4.95;;;1.75;;
44774;SDS011;31340;51.402;0.016;2022-07-23T15:52:42;3.75;;;1.60;;